Time;durP1;ratioP1;P1;durP2;ratioP2;P2;SDS_P1;SDS_P2;PMS_P1;PMS_P2;Temp;Humidity;BMP_temperature;BMP_pressure;BME280_temperature;BME280_humidity;BME280_pressure;Samples;Min_cycle;Max_cycle;Signal;HPM_P1;HPM_P2
2022/05/21 00:02:24;;;;;;;14.48;10.15;;;;;;;;;;4991391;28;20664;-62
2022/05/21 00:04:49;;;;;;;14.70;10.63;;;;;;;;;;5030200;28;20234;-62
2022/05/21 00:07:14;;;;;;;15.07;10.38;;;;;;;;;;5030680;28;20235;-62
2022/05/21 00:09:40;;;;;;;14.63;10.10;;;;;;;;;;5030867;28;20579;-62
2022/05/21 00:12:05;;;;;;;15.30;10.60;;;;;;;;;;5029598;28;20216;-62
2022/05/21 00:14:30;;;;;;;15.73;10.95;;;;;;;;;;5032140;28;20220;-62
2022/05/21 00:16:56;;;;;;;14.23;10.23;;;;;;;;;;5030618;28;20220;-62
2022/05/21 00:19:21;;;;;;;16.80;10.48;;;;;;;;;;5030631;28;20215;-62
2022/05/21 00:21:46;;;;;;;15.82;10.60;;;;;;;;;;5031172;28;20212;-62
2022/05/21 00:24:12;;;;;;;15.70;10.65;;;;;;;;;;5029964;28;20753;-62
2022/05/21 00:26:37;;;;;;;15.30;10.38;;;;;;;;;;5030942;28;20211;-62
2022/05/21 00:29:02;;;;;;;16.33;10.95;;;;;;;;;;5030432;28;20762;-62
2022/05/21 00:31:28;;;;;;;16.60;10.30;;;;;;;;;;5030266;28;20790;-62
2022/05/21 00:33:53;;;;;;;12.85;9.82;;;;;;;;;;5049078;28;20306;-62
2022/05/21 00:36:18;;;;;;;14.02;10.05;;;;;;;;;;5050222;28;20257;-62
2022/05/21 00:38:44;;;;;;;18.65;10.90;;;;;;;;;;5050119;28;20215;-62
2022/05/21 00:41:10;;;;;;;17.38;11.20;;;;;;;;;;5050063;28;20283;-62
2022/05/21 00:43:35;;;;;;;13.68;10.20;;;;;;;;;;5041458;28;20307;-62
2022/05/21 00:46:01;;;;;;;15.35;10.63;;;;;;;;;;5031199;28;20338;-62
2022/05/21 00:48:26;;;;;;;16.73;10.88;;;;;;;;;;5034494;28;20690;-62
2022/05/21 00:50:52;;;;;;;14.80;10.57;;;;;;;;;;5034435;28;20212;-62
2022/05/21 00:53:17;;;;;;;15.25;11.35;;;;;;;;;;5033311;28;20222;-62
2022/05/21 00:55:42;;;;;;;16.20;11.60;;;;;;;;;;5034234;28;20223;-62
2022/05/21 01:00:53;;;;;;;16.13;12.85;;;;;;;;;;5033764;28;20706;-62
2022/05/21 01:03:18;;;;;;;17.65;13.32;;;;;;;;;;5012623;28;20236;-62
2022/05/21 01:05:46;;;;;;;17.05;13.75;;;;;;;;;;5014587;28;20225;-62
2022/05/21 01:08:11;;;;;;;17.30;13.32;;;;;;;;;;5013147;28;20244;-61
2022/05/21 01:10:37;;;;;;;17.95;12.88;;;;;;;;;;5014304;28;20287;-62
2022/05/21 01:13:04;;;;;;;19.65;12.93;;;;;;;;;;5013715;28;20593;-62
2022/05/21 01:15:30;;;;;;;18.92;14.10;;;;;;;;;;5013758;28;20613;-62
2022/05/21 01:17:55;;;;;;;17.63;13.07;;;;;;;;;;5014572;28;20212;-62
2022/05/21 01:20:21;;;;;;;16.73;13.23;;;;;;;;;;5013010;28;20539;-62
2022/05/21 01:22:47;;;;;;;18.45;13.98;;;;;;;;;;5014052;28;20699;-62
2022/05/21 01:25:14;;;;;;;20.42;13.93;;;;;;;;;;5013714;28;20296;-62
2022/05/21 01:27:39;;;;;;;20.42;14.13;;;;;;;;;;5013389;28;20219;-62
2022/05/21 01:30:05;;;;;;;17.92;13.23;;;;;;;;;;5013948;28;20224;-62
2022/05/21 01:32:30;;;;;;;19.35;13.15;;;;;;;;;;5020697;28;20204;-62
2022/05/21 01:34:56;;;;;;;19.13;14.10;;;;;;;;;;5033052;28;20698;-62
2022/05/21 01:37:22;;;;;;;17.80;14.10;;;;;;;;;;5033116;28;20208;-62
2022/05/21 01:39:47;;;;;;;18.27;13.15;;;;;;;;;;5032364;28;21134;-62
2022/05/21 01:42:12;;;;;;;18.15;12.77;;;;;;;;;;5032466;28;20604;-62
2022/05/21 01:44:38;;;;;;;19.98;13.40;;;;;;;;;;5016091;28;20764;-62
2022/05/21 01:47:03;;;;;;;17.20;12.95;;;;;;;;;;5013414;28;20254;-62
2022/05/21 01:49:29;;;;;;;19.35;13.10;;;;;;;;;;5013058;28;20614;-62
2022/05/21 01:51:54;;;;;;;19.00;13.98;;;;;;;;;;5013443;28;20585;-62
2022/05/21 01:54:20;;;;;;;18.08;13.35;;;;;;;;;;5012946;28;20229;-62
2022/05/21 01:56:45;;;;;;;18.63;13.38;;;;;;;;;;5012662;28;20262;-62
2022/05/21 01:59:10;;;;;;;18.52;13.20;;;;;;;;;;5013080;28;20286;-62
2022/05/21 02:01:36;;;;;;;19.40;12.80;;;;;;;;;;5013743;28;20580;-62
2022/05/21 02:04:01;;;;;;;19.25;12.93;;;;;;;;;;5012079;28;20684;-62
2022/05/21 02:06:28;;;;;;;23.10;14.20;;;;;;;;;;5012859;28;20212;-62
2022/05/21 02:08:53;;;;;;;19.48;14.00;;;;;;;;;;5013242;28;20275;-62
2022/05/21 02:11:18;;;;;;;17.27;12.50;;;;;;;;;;4994383;28;20582;-62
2022/05/21 02:13:44;;;;;;;19.98;13.57;;;;;;;;;;5012934;28;20213;-62
2022/05/21 02:16:09;;;;;;;18.88;12.93;;;;;;;;;;5014171;28;20224;-62
2022/05/21 02:18:34;;;;;;;18.42;12.73;;;;;;;;;;5012683;28;20215;-62
2022/05/21 02:21:00;;;;;;;19.52;12.80;;;;;;;;;;5013063;28;20317;-62
2022/05/21 02:23:25;;;;;;;18.40;13.02;;;;;;;;;;5012248;28;20232;-62
2022/05/21 02:25:50;;;;;;;16.08;12.30;;;;;;;;;;5012250;28;20580;-62
2022/05/21 02:28:16;;;;;;;24.17;13.93;;;;;;;;;;5012374;28;20299;-62
2022/05/21 02:30:42;;;;;;;19.08;12.35;;;;;;;;;;5012299;28;20538;-62
2022/05/21 02:33:07;;;;;;;19.58;12.30;;;;;;;;;;5024030;28;20265;-62
2022/05/21 02:35:32;;;;;;;19.77;13.18;;;;;;;;;;5032779;28;20629;-62
2022/05/21 02:40:41;;;;;;;22.98;13.30;;;;;;;;;;5012253;28;20299;-62
2022/05/21 02:43:07;;;;;;;20.10;13.30;;;;;;;;;;5007793;28;20292;-62
2022/05/21 02:45:33;;;;;;;22.13;13.45;;;;;;;;;;4994401;28;20220;-62
2022/05/21 02:47:58;;;;;;;22.77;13.18;;;;;;;;;;5012741;28;20543;-62
2022/05/21 02:50:24;;;;;;;22.80;13.02;;;;;;;;;;5011924;28;20271;-62
2022/05/21 02:52:50;;;;;;;23.50;14.15;;;;;;;;;;5011425;28;20224;-62
2022/05/21 02:55:15;;;;;;;20.83;13.25;;;;;;;;;;5011625;28;20216;-62
2022/05/21 02:57:41;;;;;;;23.63;13.60;;;;;;;;;;5012352;28;20216;-62
2022/05/21 03:00:07;;;;;;;25.75;13.07;;;;;;;;;;5011333;28;20209;-62
2022/05/21 03:02:33;;;;;;;17.85;13.57;;;;;;;;;;5012255;28;20213;-62
2022/05/21 03:04:58;;;;;;;18.90;14.27;;;;;;;;;;5012191;28;20346;-62
2022/05/21 03:07:23;;;;;;;19.92;12.82;;;;;;;;;;5010810;28;20204;-62
2022/05/21 03:12:32;;;;;;;19.48;12.43;;;;;;;;;;4992456;28;20216;-62
2022/05/21 03:14:58;;;;;;;19.30;12.93;;;;;;;;;;5009117;28;20221;-62
2022/05/21 03:17:25;;;;;;;22.65;13.02;;;;;;;;;;5011909;28;20211;-62
2022/05/21 03:19:50;;;;;;;20.35;12.65;;;;;;;;;;5011259;28;20549;-62
2022/05/21 03:22:16;;;;;;;20.85;12.75;;;;;;;;;;5011420;28;20219;-62
2022/05/21 03:24:41;;;;;;;20.10;12.73;;;;;;;;;;5011793;28;20676;-62
2022/05/21 03:27:07;;;;;;;20.05;12.52;;;;;;;;;;5011006;28;20635;-62
2022/05/21 03:29:32;;;;;;;20.60;12.40;;;;;;;;;;5012252;28;20205;-62
2022/05/21 03:31:58;;;;;;;20.83;12.50;;;;;;;;;;5014405;28;20227;-62
2022/05/21 03:34:23;;;;;;;20.02;12.75;;;;;;;;;;5030121;28;20728;-62
2022/05/21 03:36:48;;;;;;;18.38;11.98;;;;;;;;;;5031341;28;20220;-62
2022/05/21 03:39:13;;;;;;;19.48;11.98;;;;;;;;;;5030794;28;20218;-62
2022/05/21 03:41:39;;;;;;;23.90;12.80;;;;;;;;;;5031090;28;20208;-62
2022/05/21 03:44:04;;;;;;;20.55;13.05;;;;;;;;;;5018527;28;20303;-62
2022/05/21 03:46:29;;;;;;;20.67;12.50;;;;;;;;;;5012007;28;20715;-62
2022/05/21 03:48:55;;;;;;;24.67;13.13;;;;;;;;;;5011099;28;20687;-62
2022/05/21 03:51:20;;;;;;;23.40;12.98;;;;;;;;;;5011168;28;20303;-62
2022/05/21 03:53:45;;;;;;;23.38;13.02;;;;;;;;;;5011518;28;20232;-62
2022/05/21 03:56:10;;;;;;;20.27;12.43;;;;;;;;;;5010374;28;20232;-62
2022/05/21 03:58:36;;;;;;;22.10;12.38;;;;;;;;;;5011828;28;20616;-62
2022/05/21 04:01:01;;;;;;;22.83;12.82;;;;;;;;;;5011415;28;20216;-62
2022/05/21 04:03:26;;;;;;;21.00;12.30;;;;;;;;;;5018948;28;20722;-62
2022/05/21 04:05:58;;;;;;;22.45;12.23;;;;;;;;;;5031244;28;20215;-63
2022/05/21 04:08:23;;;;;;;24.80;13.13;;;;;;;;;;5030521;28;20204;-62
2022/05/21 04:10:48;;;;;;;21.73;12.52;;;;;;;;;;5030193;28;20266;-62
2022/05/21 04:13:14;;;;;;;21.52;13.18;;;;;;;;;;5030836;28;20565;-62
2022/05/21 04:15:39;;;;;;;20.98;12.55;;;;;;;;;;5032761;28;20231;-62
2022/05/21 04:18:04;;;;;;;21.13;12.55;;;;;;;;;;5029976;28;20226;-62
2022/05/21 04:20:30;;;;;;;24.95;13.13;;;;;;;;;;5031490;28;20353;-62
2022/05/21 04:22:55;;;;;;;22.23;12.45;;;;;;;;;;5016979;28;20310;-62
2022/05/21 04:25:20;;;;;;;21.48;12.60;;;;;;;;;;5033485;28;20369;-62
2022/05/21 04:27:46;;;;;;;23.85;11.43;;;;;;;;;;5035234;28;20676;-62
2022/05/21 04:30:14;;;;;;;23.85;12.75;;;;;;;;;;5033892;28;20212;-62
2022/05/21 04:32:39;;;;;;;18.67;11.10;;;;;;;;;;5042961;28;20222;-62
2022/05/21 04:35:05;;;;;;;23.73;12.07;;;;;;;;;;5053877;28;20231;-62
2022/05/21 04:37:30;;;;;;;19.38;10.70;;;;;;;;;;5053781;28;20582;-63
2022/05/21 04:39:55;;;;;;;19.98;11.25;;;;;;;;;;5054089;28;20203;-62
2022/05/21 04:42:21;;;;;;;20.70;11.32;;;;;;;;;;5054334;28;20290;-62
2022/05/21 04:44:46;;;;;;;19.23;10.90;;;;;;;;;;5035125;28;20216;-62
2022/05/21 04:47:11;;;;;;;25.25;10.20;;;;;;;;;;5034285;28;20212;-62
2022/05/21 04:49:37;;;;;;;23.92;10.18;;;;;;;;;;5034418;28;20277;-62
2022/05/21 04:52:02;;;;;;;17.88;9.60;;;;;;;;;;5033179;28;20228;-62
2022/05/21 04:54:28;;;;;;;21.65;9.45;;;;;;;;;;5034113;28;20220;-62
2022/05/21 04:56:53;;;;;;;23.77;9.15;;;;;;;;;;5034335;28;20220;-62
2022/05/21 04:59:18;;;;;;;26.90;8.75;;;;;;;;;;5033462;28;20251;-62
2022/05/21 05:01:43;;;;;;;23.48;8.73;;;;;;;;;;5034672;28;20281;-62
2022/05/21 05:04:09;;;;;;;19.83;8.55;;;;;;;;;;5033430;28;20234;-62
2022/05/21 05:06:36;;;;;;;23.70;9.25;;;;;;;;;;5033428;28;20212;-62
2022/05/21 05:09:01;;;;;;;19.42;8.52;;;;;;;;;;5033451;28;20231;-62
2022/05/21 05:11:27;;;;;;;19.40;9.05;;;;;;;;;;5033906;28;20322;-62
2022/05/21 05:13:52;;;;;;;20.52;9.50;;;;;;;;;;5033578;28;20219;-62
2022/05/21 05:16:17;;;;;;;20.38;8.93;;;;;;;;;;5035225;28;20599;-62
2022/05/21 05:18:42;;;;;;;22.63;8.70;;;;;;;;;;5034170;28;20295;-62
2022/05/21 05:21:08;;;;;;;22.48;9.05;;;;;;;;;;5032635;28;20212;-62
2022/05/21 05:23:33;;;;;;;18.83;8.50;;;;;;;;;;5016312;28;20215;-62
2022/05/21 05:25:59;;;;;;;22.30;9.20;;;;;;;;;;5033459;28;20691;-62
2022/05/21 05:28:25;;;;;;;22.65;8.20;;;;;;;;;;5032832;28;20555;-62
2022/05/21 05:30:52;;;;;;;22.25;8.05;;;;;;;;;;5016178;28;20222;-62
2022/05/21 05:33:18;;;;;;;20.48;7.63;;;;;;;;;;5046225;28;20242;-62
2022/05/21 05:35:43;;;;;;;18.75;7.15;;;;;;;;;;5052620;28;20246;-62
2022/05/21 05:38:11;;;;;;;20.02;8.48;;;;;;;;;;5035155;28;20261;-62
2022/05/21 05:40:36;;;;;;;21.52;6.57;;;;;;;;;;5052537;28;20644;-63
2022/05/21 05:43:02;;;;;;;20.35;7.53;;;;;;;;;;5048785;28;20718;-62
2022/05/21 05:45:27;;;;;;;16.65;6.00;;;;;;;;;;5033572;28;20618;-62
2022/05/21 05:47:52;;;;;;;21.58;6.18;;;;;;;;;;5032810;28;20208;-62
2022/05/21 05:50:17;;;;;;;20.58;6.15;;;;;;;;;;5032902;28;20212;-62
2022/05/21 05:52:43;;;;;;;18.75;6.20;;;;;;;;;;5033542;28;20223;-63
2022/05/21 05:55:08;;;;;;;18.90;5.82;;;;;;;;;;5031558;28;20514;-63
2022/05/21 05:57:34;;;;;;;17.67;5.35;;;;;;;;;;5033440;28;20208;-62
2022/05/21 05:59:59;;;;;;;20.40;5.68;;;;;;;;;;5033389;28;20234;-63
2022/05/21 06:05:11;;;;;;;19.83;5.80;;;;;;;;;;5017503;28;20642;-62
2022/05/21 06:07:43;;;;;;;20.33;6.10;;;;;;;;;;5032837;28;20208;-62
2022/05/21 06:10:08;;;;;;;17.20;4.90;;;;;;;;;;5031905;28;20278;-62
2022/05/21 06:12:33;;;;;;;15.63;4.93;;;;;;;;;;5033100;28;20207;-62
2022/05/21 06:14:59;;;;;;;16.65;5.53;;;;;;;;;;5034568;28;20299;-62
2022/05/21 06:17:24;;;;;;;15.70;5.45;;;;;;;;;;5031588;28;20212;-62
2022/05/21 06:19:50;;;;;;;20.20;5.50;;;;;;;;;;5032625;28;20215;-63
2022/05/21 06:22:16;;;;;;;18.35;5.50;;;;;;;;;;5032074;28;20253;-63
2022/05/21 06:24:42;;;;;;;15.75;5.63;;;;;;;;;;5032151;28;20224;-62
2022/05/21 06:27:07;;;;;;;15.55;4.80;;;;;;;;;;5032266;28;20216;-62
2022/05/21 06:29:32;;;;;;;21.00;5.00;;;;;;;;;;5032858;28;20207;-62
2022/05/21 06:31:57;;;;;;;19.60;4.97;;;;;;;;;;5034080;28;20260;-63
2022/05/21 06:34:23;;;;;;;17.85;4.57;;;;;;;;;;5051876;28;20203;-63
2022/05/21 06:36:48;;;;;;;20.60;4.35;;;;;;;;;;5051359;28;20219;-63
2022/05/21 06:39:14;;;;;;;16.25;3.90;;;;;;;;;;5052061;28;20555;-62
2022/05/21 06:41:39;;;;;;;17.08;3.85;;;;;;;;;;5052409;28;20573;-63
2022/05/21 06:44:04;;;;;;;17.92;3.78;;;;;;;;;;5037065;28;20235;-62
2022/05/21 06:46:30;;;;;;;18.38;4.15;;;;;;;;;;5032463;28;20219;-62
2022/05/21 06:48:55;;;;;;;19.17;3.90;;;;;;;;;;5032149;28;20671;-63
2022/05/21 06:51:20;;;;;;;15.50;3.90;;;;;;;;;;5013213;28;20235;-63
2022/05/21 06:53:45;;;;;;;15.23;3.33;;;;;;;;;;5032163;28;20239;-63
2022/05/21 06:56:12;;;;;;;18.05;3.53;;;;;;;;;;5031813;28;20297;-62
2022/05/21 06:58:37;;;;;;;10.98;2.65;;;;;;;;;;5014011;28;20211;-63
2022/05/21 07:01:02;;;;;;;11.93;2.65;;;;;;;;;;5031881;28;20607;-63
2022/05/21 07:03:28;;;;;;;15.63;3.17;;;;;;;;;;5031525;28;20721;-63
2022/05/21 07:08:37;;;;;;;16.08;3.08;;;;;;;;;;5031895;28;20242;-63
2022/05/21 07:11:02;;;;;;;17.35;3.20;;;;;;;;;;5031511;28;20207;-63
2022/05/21 07:13:30;;;;;;;15.50;3.45;;;;;;;;;;5031164;28;20215;-63
2022/05/21 07:15:56;;;;;;;15.40;2.90;;;;;;;;;;5033133;28;20650;-63
2022/05/21 07:18:21;;;;;;;16.55;3.63;;;;;;;;;;5031132;28;20648;-63
2022/05/21 07:20:47;;;;;;;15.98;2.70;;;;;;;;;;5030748;28;20212;-63
2022/05/21 07:23:12;;;;;;;11.20;2.80;;;;;;;;;;5031581;28;20207;-63
2022/05/21 07:25:40;;;;;;;15.40;2.67;;;;;;;;;;5031882;28;20663;-62
2022/05/21 07:28:05;;;;;;;15.13;3.22;;;;;;;;;;5030568;28;20235;-63
2022/05/21 07:30:31;;;;;;;13.50;2.67;;;;;;;;;;5031473;28;20246;-63
2022/05/21 07:32:56;;;;;;;13.07;2.90;;;;;;;;;;5041259;28;20214;-63
2022/05/21 07:35:22;;;;;;;12.05;2.67;;;;;;;;;;5050449;28;20353;-63
2022/05/21 07:37:47;;;;;;;11.38;2.88;;;;;;;;;;5033821;28;20302;-63
2022/05/21 07:40:13;;;;;;;13.95;2.88;;;;;;;;;;5032577;28;20678;-63
2022/05/21 07:42:38;;;;;;;14.20;2.88;;;;;;;;;;5032409;28;20732;-63
2022/05/21 07:45:05;;;;;;;12.88;2.28;;;;;;;;;;5030575;28;20223;-62
2022/05/21 07:47:30;;;;;;;13.73;2.65;;;;;;;;;;5030501;28;20215;-63
2022/05/21 07:49:56;;;;;;;11.70;2.17;;;;;;;;;;5031174;28;20218;-63
2022/05/21 07:52:23;;;;;;;11.85;2.15;;;;;;;;;;5030998;28;20223;-62
2022/05/21 07:54:48;;;;;;;9.85;2.55;;;;;;;;;;5030571;28;20798;-63
2022/05/21 07:57:14;;;;;;;14.32;2.22;;;;;;;;;;5030916;28;20290;-63
2022/05/21 07:59:39;;;;;;;8.80;2.65;;;;;;;;;;5031055;28;20211;-63
2022/05/21 08:02:05;;;;;;;14.48;2.30;;;;;;;;;;5029818;28;20219;-63
2022/05/21 08:04:30;;;;;;;12.23;2.30;;;;;;;;;;5030709;28;20711;-63
2022/05/21 08:06:55;;;;;;;11.07;2.05;;;;;;;;;;5031218;28;20302;-63
2022/05/21 08:09:21;;;;;;;10.40;2.15;;;;;;;;;;5030307;28;20606;-63
2022/05/21 08:11:47;;;;;;;11.70;2.25;;;;;;;;;;5031559;28;20211;-63
2022/05/21 08:14:12;;;;;;;12.55;2.55;;;;;;;;;;5030457;28;20262;-63
2022/05/21 08:16:38;;;;;;;9.82;2.28;;;;;;;;;;5031578;28;20232;-62
2022/05/21 08:19:04;;;;;;;13.55;2.45;;;;;;;;;;5030355;28;20298;-63
2022/05/21 08:21:30;;;;;;;11.90;2.30;;;;;;;;;;5031149;28;20220;-63
2022/05/21 08:29:25;;;;;;;10.40;2.38;;;;;;;;;;5029737;28;20218;-63
2022/05/21 08:31:50;;;;;;;12.43;2.47;;;;;;;;;;5030857;28;20575;-63
2022/05/21 08:34:15;;;;;;;9.55;2.03;;;;;;;;;;5030430;28;20745;-63
2022/05/21 08:36:41;;;;;;;11.35;2.25;;;;;;;;;;5030298;28;20236;-63
2022/05/21 08:39:09;;;;;;;11.45;3.15;;;;;;;;;;5030572;28;20208;-63
2022/05/21 08:41:34;;;;;;;12.10;2.45;;;;;;;;;;5030719;28;20220;-63
2022/05/21 08:44:07;;;;;;;11.43;2.53;;;;;;;;;;5025296;28;20753;-63
2022/05/21 08:46:36;;;;;;;17.05;3.10;;;;;;;;;;5010721;28;20208;-62
2022/05/21 08:49:08;;;;;;;13.95;2.72;;;;;;;;;;5009707;28;20673;-62
2022/05/21 08:51:39;;;;;;;10.50;2.28;;;;;;;;;;5009360;28;20213;-63
2022/05/21 08:54:04;;;;;;;11.43;2.47;;;;;;;;;;5009223;28;20299;-62
2022/05/21 08:56:30;;;;;;;11.98;2.45;;;;;;;;;;5010884;28;20307;-63
2022/05/21 08:58:56;;;;;;;10.40;2.50;;;;;;;;;;5009898;28;20274;-63
2022/05/21 09:01:24;;;;;;;10.38;2.42;;;;;;;;;;5009443;28;20224;-63
2022/05/21 09:03:50;;;;;;;11.50;2.30;;;;;;;;;;5010971;28;20235;-63
2022/05/21 09:06:21;;;;;;;15.93;2.42;;;;;;;;;;5010271;28;20212;-63
2022/05/21 09:09:01;;;;;;;11.35;2.53;;;;;;;;;;5014371;28;20216;-63
2022/05/21 09:11:37;;;;;;;12.25;2.40;;;;;;;;;;5031852;28;20215;-62
2022/05/21 09:14:05;;;;;;;11.10;2.50;;;;;;;;;;5015881;28;20215;-62
2022/05/21 09:19:18;;;;;;;36.63;4.30;;;;;;;;;;5032586;28;20273;-63
2022/05/21 09:21:46;;;;;;;9.13;1.88;;;;;;;;;;5016163;28;20216;-63
2022/05/21 09:24:31;;;;;;;12.05;2.00;;;;;;;;;;5033396;28;20211;-62
2022/05/21 09:26:56;;;;;;;10.50;2.20;;;;;;;;;;5015762;28;20248;-63
2022/05/21 09:29:21;;;;;;;10.40;2.17;;;;;;;;;;5015630;28;20243;-63
2022/05/21 09:31:47;;;;;;;13.60;2.50;;;;;;;;;;5034273;28;20693;-63
2022/05/21 09:34:13;;;;;;;10.75;2.30;;;;;;;;;;5034406;28;20215;-63
2022/05/21 09:36:39;;;;;;;9.77;2.00;;;;;;;;;;5053484;28;20284;-63
2022/05/21 09:39:05;;;;;;;9.73;2.10;;;;;;;;;;5053418;28;20211;-63
2022/05/21 09:41:32;;;;;;;9.90;1.75;;;;;;;;;;5035188;28;20596;-63
2022/05/21 09:46:43;;;;;;;11.68;1.70;;;;;;;;;;5031066;28;20218;-63
2022/05/21 09:49:18;;;;;;;8.40;1.60;;;;;;;;;;5052911;28;20211;-63
2022/05/21 09:51:51;;;;;;;8.27;1.58;;;;;;;;;;5053601;28;20236;-63
2022/05/21 09:54:19;;;;;;;11.05;2.00;;;;;;;;;;5052206;28;20207;-63
2022/05/21 09:56:48;;;;;;;8.63;1.73;;;;;;;;;;5052983;28;20226;-63
2022/05/21 09:59:14;;;;;;;9.32;1.60;;;;;;;;;;5052715;28;20552;-62
2022/05/21 10:01:41;;;;;;;8.45;2.00;;;;;;;;;;5052111;28;20211;-63
2022/05/21 10:04:27;;;;;;;8.63;1.52;;;;;;;;;;5052574;28;20774;-63
2022/05/21 10:06:54;;;;;;;10.90;2.67;;;;;;;;;;5053163;28;20553;-63
2022/05/21 10:12:08;;;;;;;9.43;2.40;;;;;;;;;;5052311;28;20584;-62
2022/05/21 10:14:36;;;;;;;14.63;2.50;;;;;;;;;;5034826;28;20208;-63
2022/05/21 10:17:06;;;;;;;8.80;2.33;;;;;;;;;;5031797;28;20235;-63
2022/05/21 10:19:42;;;;;;;13.75;2.63;;;;;;;;;;5031404;28;20240;-63
2022/05/21 10:22:10;;;;;;;12.82;3.03;;;;;;;;;;5031837;28;20302;-63
2022/05/21 10:24:38;;;;;;;13.82;3.30;;;;;;;;;;5032722;28;20299;-63
2022/05/21 10:27:14;;;;;;;11.52;2.88;;;;;;;;;;5031494;28;20212;-63
2022/05/21 10:29:44;;;;;;;12.00;2.83;;;;;;;;;;5032000;28;20725;-63
2022/05/21 10:32:28;;;;;;;13.30;3.00;;;;;;;;;;5034905;28;20345;-63
2022/05/21 10:35:10;;;;;;;12.43;2.92;;;;;;;;;;5052012;28;20721;-63
2022/05/21 10:37:36;;;;;;;12.65;2.88;;;;;;;;;;5034268;28;20272;-63
2022/05/21 10:40:07;;;;;;;9.80;2.70;;;;;;;;;;5050859;28;20600;-63
2022/05/21 10:42:35;;;;;;;8.98;2.40;;;;;;;;;;5051973;28;20219;-63
2022/05/21 10:45:09;;;;;;;8.73;2.70;;;;;;;;;;5013709;28;20211;-63
2022/05/21 10:47:51;;;;;;;10.90;2.88;;;;;;;;;;5031908;28;20273;-63
2022/05/21 10:50:28;;;;;;;11.43;2.83;;;;;;;;;;5013631;28;20230;-63
2022/05/21 10:52:57;;;;;;;11.98;3.25;;;;;;;;;;5032351;28;20662;-63
2022/05/21 10:55:28;;;;;;;11.48;2.55;;;;;;;;;;5031494;28;20247;-62
2022/05/21 10:57:58;;;;;;;8.88;1.70;;;;;;;;;;5031237;28;20216;-63
2022/05/21 11:00:33;;;;;;;6.80;2.17;;;;;;;;;;5014063;28;20352;-63
2022/05/21 11:03:08;;;;;;;9.23;2.45;;;;;;;;;;5014102;28;20219;-63
2022/05/21 11:05:40;;;;;;;10.38;2.10;;;;;;;;;;5031000;28;20261;-63
2022/05/21 11:08:11;;;;;;;13.80;2.42;;;;;;;;;;5031351;28;20302;-63
2022/05/21 11:10:40;;;;;;;10.98;1.90;;;;;;;;;;5014306;28;20220;-63
2022/05/21 11:13:08;;;;;;;9.55;1.83;;;;;;;;;;5030956;28;20212;-63
2022/05/21 11:15:43;;;;;;;10.68;1.92;;;;;;;;;;5033435;28;20310;-62
2022/05/21 11:18:13;;;;;;;9.32;1.90;;;;;;;;;;5030425;28;20305;-63
2022/05/21 11:20:40;;;;;;;9.30;1.98;;;;;;;;;;5031449;28;20528;-63
2022/05/21 11:23:15;;;;;;;7.40;2.03;;;;;;;;;;5013497;28;20211;-63
2022/05/21 11:25:42;;;;;;;8.98;2.10;;;;;;;;;;5013425;28;20225;-63
2022/05/21 11:28:11;;;;;;;12.00;2.35;;;;;;;;;;5031458;28;20236;-63
2022/05/21 11:30:36;;;;;;;11.88;2.80;;;;;;;;;;5031023;28;20212;-63
2022/05/21 11:38:38;;;;;;;9.23;2.22;;;;;;;;;;5036331;28;20254;-63
2022/05/21 11:41:29;;;;;;;10.27;2.90;;;;;;;;;;5032615;28;20234;-63
2022/05/21 11:44:55;;;;;;;11.20;2.50;;;;;;;;;;5039526;28;20295;-63
2022/05/21 11:46:49;;;;;;;8.95;2.35;;;;;;;;;;5015638;28;20298;-62
2022/05/21 11:49:26;;;;;;;13.02;2.78;;;;;;;;;;5030549;28;20681;-62
2022/05/21 11:51:52;;;;;;;12.90;2.78;;;;;;;;;;5031336;28;20227;-63
2022/05/21 11:54:36;;;;;;;11.85;2.30;;;;;;;;;;5029787;28;20211;-62
2022/05/21 11:57:02;;;;;;;10.88;2.72;;;;;;;;;;5030802;28;20231;-63
2022/05/21 11:59:36;;;;;;;11.98;2.70;;;;;;;;;;5013573;28;20215;-63
2022/05/21 12:02:09;;;;;;;9.77;2.40;;;;;;;;;;5012397;28;20557;-63
2022/05/21 12:04:37;;;;;;;7.43;1.90;;;;;;;;;;5012958;28;20294;-62
2022/05/21 12:07:04;;;;;;;9.48;2.33;;;;;;;;;;5010965;28;20243;-63
2022/05/21 12:09:31;;;;;;;9.25;2.15;;;;;;;;;;5010756;28;20212;-63
2022/05/21 12:12:16;;;;;;;8.65;1.90;;;;;;;;;;5011611;28;20215;-63
2022/05/21 12:14:54;;;;;;;11.23;2.00;;;;;;;;;;4998147;28;20243;-63
2022/05/21 12:17:37;;;;;;;11.13;2.05;;;;;;;;;;4985293;28;20255;-63
2022/05/21 12:20:04;;;;;;;11.25;2.45;;;;;;;;;;5010995;28;20220;-62
2022/05/21 12:22:36;;;;;;;11.00;2.40;;;;;;;;;;5010744;28;20242;-62
2022/05/21 12:25:02;;;;;;;8.13;1.90;;;;;;;;;;5010643;28;20235;-62
2022/05/21 12:27:28;;;;;;;10.45;2.03;;;;;;;;;;5011161;28;20672;-63
2022/05/21 12:29:56;;;;;;;6.93;1.77;;;;;;;;;;5010240;28;20212;-62
2022/05/21 12:32:24;;;;;;;5.90;1.58;;;;;;;;;;5021502;28;20223;-62
2022/05/21 12:35:07;;;;;;;8.38;1.70;;;;;;;;;;5011435;28;20211;-62
2022/05/21 12:37:40;;;;;;;7.60;1.85;;;;;;;;;;5016463;28;20649;-63
2022/05/21 12:40:09;;;;;;;8.75;1.88;;;;;;;;;;5018441;28;20603;-63
2022/05/21 12:42:36;;;;;;;8.70;2.80;;;;;;;;;;5009145;28;20215;-62
2022/05/21 12:45:02;;;;;;;6.07;1.60;;;;;;;;;;5028731;28;20215;-63
2022/05/21 12:47:27;;;;;;;7.60;1.70;;;;;;;;;;5011336;28;20220;-62
2022/05/21 12:49:52;;;;;;;9.43;1.88;;;;;;;;;;5028222;28;20759;-63
2022/05/21 12:52:25;;;;;;;10.90;1.95;;;;;;;;;;5028359;28;20684;-63
2022/05/21 12:55:04;;;;;;;7.38;1.95;;;;;;;;;;5010991;28;20239;-63
2022/05/21 12:57:31;;;;;;;9.65;2.00;;;;;;;;;;5003390;28;20289;-63
2022/05/21 13:00:04;;;;;;;7.50;1.70;;;;;;;;;;5021326;28;20220;-63
2022/05/21 13:02:29;;;;;;;9.70;2.67;;;;;;;;;;5004283;28;20224;-63
2022/05/21 13:04:59;;;;;;;7.63;2.42;;;;;;;;;;5028996;28;20204;-63
2022/05/21 13:07:27;;;;;;;10.25;2.53;;;;;;;;;;5027890;28;20214;-63
2022/05/21 13:09:53;;;;;;;9.80;2.03;;;;;;;;;;5067505;28;20310;-63
2022/05/21 13:12:19;;;;;;;11.00;2.00;;;;;;;;;;5067107;28;20252;-63
2022/05/21 13:14:45;;;;;;;9.00;1.90;;;;;;;;;;5046490;28;20227;-63
2022/05/21 13:17:17;;;;;;;8.63;1.90;;;;;;;;;;5047787;28;20231;-62
2022/05/21 13:19:55;;;;;;;11.55;2.05;;;;;;;;;;5040671;28;20685;-62
2022/05/21 13:22:33;;;;;;;9.93;2.17;;;;;;;;;;5039681;28;20211;-63
2022/05/21 13:25:01;;;;;;;8.13;2.13;;;;;;;;;;5039807;28;20585;-63
2022/05/21 13:27:26;;;;;;;9.10;2.40;;;;;;;;;;5029368;28;20215;-63
2022/05/21 13:29:52;;;;;;;10.55;2.30;;;;;;;;;;5048204;28;20262;-63
2022/05/21 13:32:21;;;;;;;8.32;2.17;;;;;;;;;;5048533;28;20298;-63
2022/05/21 13:34:46;;;;;;;10.48;2.28;;;;;;;;;;5051543;28;20211;-63
2022/05/21 13:37:11;;;;;;;8.88;2.10;;;;;;;;;;5053129;28;20222;-63
2022/05/21 13:39:37;;;;;;;11.82;2.53;;;;;;;;;;5052901;28;20207;-63
2022/05/21 13:42:10;;;;;;;9.27;2.30;;;;;;;;;;5053285;28;20215;-62
2022/05/21 13:44:36;;;;;;;7.43;2.20;;;;;;;;;;5053225;28;20242;-63
2022/05/21 13:47:02;;;;;;;9.25;2.72;;;;;;;;;;5052319;28;20238;-63
2022/05/21 13:49:30;;;;;;;9.18;2.15;;;;;;;;;;5053213;28;20211;-63
2022/05/21 13:51:55;;;;;;;10.50;2.10;;;;;;;;;;5053383;28;20318;-63
2022/05/21 13:54:22;;;;;;;8.73;1.95;;;;;;;;;;5034175;28;20298;-63
2022/05/21 13:56:47;;;;;;;7.53;1.75;;;;;;;;;;5053186;28;20593;-63
2022/05/21 13:59:14;;;;;;;9.10;1.77;;;;;;;;;;5034761;28;20528;-63
2022/05/21 14:01:39;;;;;;;10.75;1.80;;;;;;;;;;5052275;28;20749;-63
2022/05/21 14:04:06;;;;;;;10.68;1.60;;;;;;;;;;5052155;28;20369;-62
2022/05/21 14:06:31;;;;;;;7.00;1.73;;;;;;;;;;5053020;28;20207;-63
2022/05/21 14:08:57;;;;;;;7.57;1.77;;;;;;;;;;5035003;28;20250;-62
2022/05/21 14:11:22;;;;;;;7.88;1.80;;;;;;;;;;5032806;28;20234;-63
2022/05/21 14:13:59;;;;;;;8.40;1.50;;;;;;;;;;5032963;28;20216;-63
2022/05/21 14:16:31;;;;;;;12.13;1.85;;;;;;;;;;5032020;28;20778;-63
2022/05/21 14:19:23;;;;;;;7.95;1.48;;;;;;;;;;5032958;28;20219;-63
2022/05/21 14:21:59;;;;;;;8.02;2.10;;;;;;;;;;5042089;28;20231;-63
2022/05/21 14:24:25;;;;;;;8.45;1.48;;;;;;;;;;5032064;28;20338;-63
2022/05/21 14:26:52;;;;;;;6.63;1.55;;;;;;;;;;5032675;28;20294;-63
2022/05/21 14:29:35;;;;;;;6.07;1.60;;;;;;;;;;5031323;28;20211;-63
2022/05/21 14:32:12;;;;;;;6.00;1.45;;;;;;;;;;5033552;28;20358;-63
2022/05/21 14:34:37;;;;;;;6.28;1.52;;;;;;;;;;5012736;28;20220;-63
2022/05/21 14:37:02;;;;;;;7.05;1.38;;;;;;;;;;5011143;28;20231;-63
2022/05/21 14:39:28;;;;;;;5.65;1.40;;;;;;;;;;5011916;28;20743;-63
2022/05/21 14:41:57;;;;;;;6.45;1.40;;;;;;;;;;5012805;28;20227;-63
2022/05/21 14:44:23;;;;;;;7.95;1.58;;;;;;;;;;5027014;28;20234;-63
2022/05/21 14:49:32;;;;;;;8.20;1.70;;;;;;;;;;5030399;28;20223;-63
2022/05/21 14:54:42;;;;;;;7.28;1.58;;;;;;;;;;5030934;28;20222;-63
2022/05/21 14:57:09;;;;;;;6.22;1.60;;;;;;;;;;5031124;28;20231;-63
2022/05/21 14:59:34;;;;;;;9.65;1.90;;;;;;;;;;5032165;28;20298;-63
2022/05/21 15:02:01;;;;;;;8.38;1.70;;;;;;;;;;5031840;28;20345;-63
2022/05/21 15:04:26;;;;;;;9.45;2.42;;;;;;;;;;5037905;28;20373;-63
2022/05/21 15:06:51;;;;;;;8.80;2.00;;;;;;;;;;5031945;28;20631;-63
2022/05/21 15:09:17;;;;;;;8.57;1.80;;;;;;;;;;5031432;28;20221;-63